sensor_id;sensor_type;location;lat;lon;timestamp;temperature;humidity
51029;DHT22;37054;52.054;8.600;2023-03-13T00:00:55;15.60;63.00
51029;DHT22;37054;52.054;8.600;2023-03-13T00:03:21;15.50;62.80
51029;DHT22;37054;52.054;8.600;2023-03-13T00:05:47;15.50;62.90
51029;DHT22;37054;52.054;8.600;2023-03-13T00:08:13;15.60;63.00
51029;DHT22;37054;52.054;8.600;2023-03-13T00:10:39;15.60;63.00
51029;DHT22;37054;52.054;8.600;2023-03-13T00:13:05;15.60;62.80
51029;DHT22;37054;52.054;8.600;2023-03-13T00:15:32;15.60;63.00
51029;DHT22;37054;52.054;8.600;2023-03-13T00:17:58;15.60;63.10
51029;DHT22;37054;52.054;8.600;2023-03-13T00:20:24;15.60;63.00
51029;DHT22;37054;52.054;8.600;2023-03-13T00:22:50;15.60;62.70
51029;DHT22;37054;52.054;8.600;2023-03-13T00:25:15;15.70;63.00
51029;DHT22;37054;52.054;8.600;2023-03-13T00:27:41;15.60;62.80
51029;DHT22;37054;52.054;8.600;2023-03-13T00:30:06;15.70;62.80
51029;DHT22;37054;52.054;8.600;2023-03-13T00:32:32;15.50;62.60
51029;DHT22;37054;52.054;8.600;2023-03-13T00:34:58;15.50;62.60
51029;DHT22;37054;52.054;8.600;2023-03-13T00:37:23;15.50;62.50
51029;DHT22;37054;52.054;8.600;2023-03-13T00:39:49;15.40;62.50
51029;DHT22;37054;52.054;8.600;2023-03-13T00:42:15;15.30;62.50
51029;DHT22;37054;52.054;8.600;2023-03-13T00:44:40;15.30;62.60
51029;DHT22;37054;52.054;8.600;2023-03-13T00:47:06;15.20;62.70
51029;DHT22;37054;52.054;8.600;2023-03-13T00:49:31;15.20;62.70
51029;DHT22;37054;52.054;8.600;2023-03-13T00:51:57;15.20;62.70
51029;DHT22;37054;52.054;8.600;2023-03-13T00:54:23;15.20;62.70
51029;DHT22;37054;52.054;8.600;2023-03-13T00:56:48;15.20;62.50
51029;DHT22;37054;52.054;8.600;2023-03-13T00:59:14;15.10;62.60
51029;DHT22;37054;52.054;8.600;2023-03-13T01:01:40;15.20;62.40
51029;DHT22;37054;52.054;8.600;2023-03-13T01:04:06;15.30;62.80
51029;DHT22;37054;52.054;8.600;2023-03-13T01:06:33;15.30;62.80
51029;DHT22;37054;52.054;8.600;2023-03-13T01:08:59;15.40;62.90
51029;DHT22;37054;52.054;8.600;2023-03-13T01:11:26;15.30;62.60
51029;DHT22;37054;52.054;8.600;2023-03-13T01:13:55;15.40;62.80
51029;DHT22;37054;52.054;8.600;2023-03-13T01:16:20;15.50;62.50
51029;DHT22;37054;52.054;8.600;2023-03-13T01:18:47;15.50;62.10
51029;DHT22;37054;52.054;8.600;2023-03-13T01:21:13;15.60;62.70
51029;DHT22;37054;52.054;8.600;2023-03-13T01:23:39;15.60;62.30
51029;DHT22;37054;52.054;8.600;2023-03-13T01:26:05;15.60;62.10
51029;DHT22;37054;52.054;8.600;2023-03-13T01:28:31;15.70;62.50
51029;DHT22;37054;52.054;8.600;2023-03-13T01:30:57;15.70;62.10
51029;DHT22;37054;52.054;8.600;2023-03-13T01:33:23;15.70;62.10
51029;DHT22;37054;52.054;8.600;2023-03-13T01:35:49;15.80;61.90
51029;DHT22;37054;52.054;8.600;2023-03-13T01:38:15;15.80;62.00
51029;DHT22;37054;52.054;8.600;2023-03-13T01:40:42;15.70;61.80
51029;DHT22;37054;52.054;8.600;2023-03-13T01:43:14;15.50;61.90
51029;DHT22;37054;52.054;8.600;2023-03-13T01:48:15;15.20;62.50
51029;DHT22;37054;52.054;8.600;2023-03-13T01:50:41;15.10;62.90
51029;DHT22;37054;52.054;8.600;2023-03-13T01:53:07;15.00;63.20
51029;DHT22;37054;52.054;8.600;2023-03-13T01:55:32;14.90;63.40
51029;DHT22;37054;52.054;8.600;2023-03-13T01:57:58;14.80;63.50
51029;DHT22;37054;52.054;8.600;2023-03-13T02:00:28;14.70;63.60
51029;DHT22;37054;52.054;8.600;2023-03-13T02:02:55;14.60;63.70
51029;DHT22;37054;52.054;8.600;2023-03-13T02:05:23;14.60;63.90
51029;DHT22;37054;52.054;8.600;2023-03-13T02:07:51;14.60;64.00
51029;DHT22;37054;52.054;8.600;2023-03-13T02:10:19;14.50;64.20
51029;DHT22;37054;52.054;8.600;2023-03-13T02:12:46;14.50;64.30
51029;DHT22;37054;52.054;8.600;2023-03-13T02:15:18;14.40;64.50
51029;DHT22;37054;52.054;8.600;2023-03-13T02:17:44;14.40;64.60
51029;DHT22;37054;52.054;8.600;2023-03-13T02:20:11;14.30;64.80
51029;DHT22;37054;52.054;8.600;2023-03-13T02:27:50;14.30;65.00
51029;DHT22;37054;52.054;8.600;2023-03-13T02:30:16;14.30;65.00
51029;DHT22;37054;52.054;8.600;2023-03-13T02:32:43;14.30;65.00
51029;DHT22;37054;52.054;8.600;2023-03-13T02:35:10;14.30;65.30
51029;DHT22;37054;52.054;8.600;2023-03-13T02:37:36;14.30;65.40
51029;DHT22;37054;52.054;8.600;2023-03-13T02:40:03;14.30;65.50
51029;DHT22;37054;52.054;8.600;2023-03-13T02:42:30;14.30;65.70
51029;DHT22;37054;52.054;8.600;2023-03-13T02:44:55;14.40;65.50
51029;DHT22;37054;52.054;8.600;2023-03-13T02:47:22;14.50;65.40
51029;DHT22;37054;52.054;8.600;2023-03-13T02:49:48;14.60;65.40
51029;DHT22;37054;52.054;8.600;2023-03-13T02:52:22;14.60;65.20
51029;DHT22;37054;52.054;8.600;2023-03-13T02:54:50;14.60;65.50
51029;DHT22;37054;52.054;8.600;2023-03-13T02:57:16;14.60;65.60
51029;DHT22;37054;52.054;8.600;2023-03-13T02:59:44;14.60;65.60
51029;DHT22;37054;52.054;8.600;2023-03-13T03:02:10;14.60;65.40
51029;DHT22;37054;52.054;8.600;2023-03-13T03:04:37;14.60;65.50
51029;DHT22;37054;52.054;8.600;2023-03-13T03:07:02;14.60;65.60
51029;DHT22;37054;52.054;8.600;2023-03-13T03:09:28;14.70;65.60
51029;DHT22;37054;52.054;8.600;2023-03-13T03:11:54;14.60;65.40
51029;DHT22;37054;52.054;8.600;2023-03-13T03:14:20;14.60;65.50
51029;DHT22;37054;52.054;8.600;2023-03-13T03:16:45;14.60;65.40
51029;DHT22;37054;52.054;8.600;2023-03-13T03:19:11;14.50;65.50
51029;DHT22;37054;52.054;8.600;2023-03-13T03:21:37;14.60;65.60
51029;DHT22;37054;52.054;8.600;2023-03-13T03:24:03;14.50;65.60
51029;DHT22;37054;52.054;8.600;2023-03-13T03:26:28;14.50;65.50
51029;DHT22;37054;52.054;8.600;2023-03-13T03:28:54;14.60;65.50
51029;DHT22;37054;52.054;8.600;2023-03-13T03:31:20;14.50;65.70
51029;DHT22;37054;52.054;8.600;2023-03-13T03:33:45;14.60;65.70
51029;DHT22;37054;52.054;8.600;2023-03-13T03:36:15;14.50;65.80
51029;DHT22;37054;52.054;8.600;2023-03-13T03:38:41;14.50;65.90
51029;DHT22;37054;52.054;8.600;2023-03-13T03:41:07;14.50;65.80
51029;DHT22;37054;52.054;8.600;2023-03-13T03:43:33;14.50;65.90
51029;DHT22;37054;52.054;8.600;2023-03-13T03:45:58;14.50;66.00
51029;DHT22;37054;52.054;8.600;2023-03-13T03:48:24;14.50;66.10
51029;DHT22;37054;52.054;8.600;2023-03-13T03:50:49;14.50;66.10
51029;DHT22;37054;52.054;8.600;2023-03-13T03:53:15;14.50;66.10
51029;DHT22;37054;52.054;8.600;2023-03-13T03:55:41;14.60;66.00
51029;DHT22;37054;52.054;8.600;2023-03-13T03:58:07;14.60;66.20
51029;DHT22;37054;52.054;8.600;2023-03-13T04:00:32;14.60;66.20
51029;DHT22;37054;52.054;8.600;2023-03-13T04:02:58;14.60;66.30
51029;DHT22;37054;52.054;8.600;2023-03-13T04:05:24;14.60;66.30
51029;DHT22;37054;52.054;8.600;2023-03-13T04:07:49;14.70;66.20
51029;DHT22;37054;52.054;8.600;2023-03-13T04:10:15;14.60;66.20
51029;DHT22;37054;52.054;8.600;2023-03-13T04:12:41;14.60;66.30
51029;DHT22;37054;52.054;8.600;2023-03-13T04:15:07;14.70;66.40
51029;DHT22;37054;52.054;8.600;2023-03-13T04:17:32;14.70;66.20
51029;DHT22;37054;52.054;8.600;2023-03-13T04:19:58;14.70;66.30
51029;DHT22;37054;52.054;8.600;2023-03-13T04:22:24;14.70;66.30
51029;DHT22;37054;52.054;8.600;2023-03-13T04:24:49;14.80;66.10
51029;DHT22;37054;52.054;8.600;2023-03-13T04:27:16;14.80;66.10
51029;DHT22;37054;52.054;8.600;2023-03-13T04:29:41;14.80;66.20
51029;DHT22;37054;52.054;8.600;2023-03-13T04:32:07;14.80;66.30
51029;DHT22;37054;52.054;8.600;2023-03-13T04:34:32;14.80;66.30
51029;DHT22;37054;52.054;8.600;2023-03-13T04:36:58;14.80;66.30
51029;DHT22;37054;52.054;8.600;2023-03-13T04:39:24;14.80;66.50
51029;DHT22;37054;52.054;8.600;2023-03-13T04:41:53;14.80;66.70
51029;DHT22;37054;52.054;8.600;2023-03-13T04:44:19;14.70;66.90
51029;DHT22;37054;52.054;8.600;2023-03-13T04:46:44;14.80;67.00
51029;DHT22;37054;52.054;8.600;2023-03-13T04:49:10;14.90;66.70
51029;DHT22;37054;52.054;8.600;2023-03-13T04:51:36;14.80;66.90
51029;DHT22;37054;52.054;8.600;2023-03-13T04:54:01;14.90;67.00
51029;DHT22;37054;52.054;8.600;2023-03-13T04:56:27;14.90;67.20
51029;DHT22;37054;52.054;8.600;2023-03-13T04:58:53;15.00;66.90
51029;DHT22;37054;52.054;8.600;2023-03-13T05:01:19;15.10;66.70
51029;DHT22;37054;52.054;8.600;2023-03-13T05:03:45;15.00;67.00
51029;DHT22;37054;52.054;8.600;2023-03-13T05:06:10;15.20;66.70
51029;DHT22;37054;52.054;8.600;2023-03-13T05:08:36;15.20;66.70
51029;DHT22;37054;52.054;8.600;2023-03-13T05:11:02;15.20;66.90
51029;DHT22;37054;52.054;8.600;2023-03-13T05:13:28;15.20;66.70
51029;DHT22;37054;52.054;8.600;2023-03-13T05:15:55;15.30;66.60
51029;DHT22;37054;52.054;8.600;2023-03-13T05:18:20;15.40;66.60
51029;DHT22;37054;52.054;8.600;2023-03-13T05:20:46;15.40;66.70
51029;DHT22;37054;52.054;8.600;2023-03-13T05:23:12;15.40;66.60
51029;DHT22;37054;52.054;8.600;2023-03-13T05:25:37;15.40;66.70
51029;DHT22;37054;52.054;8.600;2023-03-13T05:28:03;15.40;66.90
51029;DHT22;37054;52.054;8.600;2023-03-13T05:30:28;15.60;66.70
51029;DHT22;37054;52.054;8.600;2023-03-13T05:32:54;15.60;66.80
51029;DHT22;37054;52.054;8.600;2023-03-13T05:35:19;15.60;66.50
51029;DHT22;37054;52.054;8.600;2023-03-13T05:37:45;15.60;66.70
51029;DHT22;37054;52.054;8.600;2023-03-13T05:40:11;15.50;66.80
51029;DHT22;37054;52.054;8.600;2023-03-13T05:42:37;15.60;66.90
51029;DHT22;37054;52.054;8.600;2023-03-13T05:45:03;15.70;66.90
51029;DHT22;37054;52.054;8.600;2023-03-13T05:47:29;15.70;66.80
51029;DHT22;37054;52.054;8.600;2023-03-13T05:49:54;15.70;67.00
51029;DHT22;37054;52.054;8.600;2023-03-13T05:52:20;15.80;66.80
51029;DHT22;37054;52.054;8.600;2023-03-13T05:54:46;16.00;66.60
51029;DHT22;37054;52.054;8.600;2023-03-13T05:57:12;16.00;66.60
51029;DHT22;37054;52.054;8.600;2023-03-13T05:59:37;16.00;66.60
51029;DHT22;37054;52.054;8.600;2023-03-13T06:02:03;16.00;66.60
51029;DHT22;37054;52.054;8.600;2023-03-13T06:04:29;15.90;67.00
51029;DHT22;37054;52.054;8.600;2023-03-13T06:06:54;16.10;66.90
51029;DHT22;37054;52.054;8.600;2023-03-13T06:09:20;16.00;67.20
51029;DHT22;37054;52.054;8.600;2023-03-13T06:11:46;16.10;67.10
51029;DHT22;37054;52.054;8.600;2023-03-13T06:14:11;16.20;67.00
51029;DHT22;37054;52.054;8.600;2023-03-13T06:16:37;16.20;67.00
51029;DHT22;37054;52.054;8.600;2023-03-13T06:19:02;16.30;66.90
51029;DHT22;37054;52.054;8.600;2023-03-13T06:21:28;16.30;66.80
51029;DHT22;37054;52.054;8.600;2023-03-13T06:23:54;16.40;67.00
51029;DHT22;37054;52.054;8.600;2023-03-13T06:26:20;16.30;67.50
51029;DHT22;37054;52.054;8.600;2023-03-13T06:28:46;16.40;67.20
51029;DHT22;37054;52.054;8.600;2023-03-13T06:31:12;16.60;66.80
51029;DHT22;37054;52.054;8.600;2023-03-13T06:33:38;16.70;66.60
51029;DHT22;37054;52.054;8.600;2023-03-13T06:36:04;16.70;66.60
51029;DHT22;37054;52.054;8.600;2023-03-13T06:38:29;16.80;66.60
51029;DHT22;37054;52.054;8.600;2023-03-13T06:40:55;16.80;66.50
51029;DHT22;37054;52.054;8.600;2023-03-13T06:43:21;16.80;66.40
51029;DHT22;37054;52.054;8.600;2023-03-13T06:45:46;16.80;66.60
51029;DHT22;37054;52.054;8.600;2023-03-13T06:48:12;16.80;66.80
51029;DHT22;37054;52.054;8.600;2023-03-13T06:50:38;16.80;66.70
51029;DHT22;37054;52.054;8.600;2023-03-13T06:53:04;16.80;66.70
51029;DHT22;37054;52.054;8.600;2023-03-13T06:55:29;16.80;66.80
51029;DHT22;37054;52.054;8.600;2023-03-13T06:57:55;16.90;66.70
51029;DHT22;37054;52.054;8.600;2023-03-13T07:00:21;16.90;66.80
51029;DHT22;37054;52.054;8.600;2023-03-13T07:02:47;17.00;66.70
51029;DHT22;37054;52.054;8.600;2023-03-13T07:05:12;17.00;66.60
51029;DHT22;37054;52.054;8.600;2023-03-13T07:07:42;17.10;66.50
51029;DHT22;37054;52.054;8.600;2023-03-13T07:10:09;17.10;66.40
51029;DHT22;37054;52.054;8.600;2023-03-13T07:12:35;17.10;66.60
51029;DHT22;37054;52.054;8.600;2023-03-13T07:15:00;17.10;66.60
51029;DHT22;37054;52.054;8.600;2023-03-13T07:17:28;17.10;66.60
51029;DHT22;37054;52.054;8.600;2023-03-13T07:19:54;17.20;66.60
51029;DHT22;37054;52.054;8.600;2023-03-13T07:22:20;17.20;66.40
51029;DHT22;37054;52.054;8.600;2023-03-13T07:24:45;17.20;66.50
51029;DHT22;37054;52.054;8.600;2023-03-13T07:27:11;17.20;66.60
51029;DHT22;37054;52.054;8.600;2023-03-13T07:29:37;17.20;66.60
51029;DHT22;37054;52.054;8.600;2023-03-13T07:32:03;17.20;66.50
51029;DHT22;37054;52.054;8.600;2023-03-13T07:34:28;17.30;66.70
51029;DHT22;37054;52.054;8.600;2023-03-13T07:36:54;17.30;66.80
51029;DHT22;37054;52.054;8.600;2023-03-13T07:39:19;17.30;66.80
51029;DHT22;37054;52.054;8.600;2023-03-13T07:41:45;17.30;66.70
51029;DHT22;37054;52.054;8.600;2023-03-13T07:44:11;17.40;66.60
51029;DHT22;37054;52.054;8.600;2023-03-13T07:46:38;17.40;66.70
51029;DHT22;37054;52.054;8.600;2023-03-13T07:49:03;17.50;66.90
51029;DHT22;37054;52.054;8.600;2023-03-13T07:51:29;17.50;66.80
51029;DHT22;37054;52.054;8.600;2023-03-13T07:53:55;17.70;66.70
51029;DHT22;37054;52.054;8.600;2023-03-13T07:56:21;17.80;66.80
51029;DHT22;37054;52.054;8.600;2023-03-13T07:58:47;17.80;66.80
51029;DHT22;37054;52.054;8.600;2023-03-13T08:01:14;17.90;66.70
51029;DHT22;37054;52.054;8.600;2023-03-13T08:03:40;18.00;66.40
51029;DHT22;37054;52.054;8.600;2023-03-13T08:06:09;18.10;66.30
51029;DHT22;37054;52.054;8.600;2023-03-13T08:08:35;18.10;66.10
51029;DHT22;37054;52.054;8.600;2023-03-13T08:11:06;18.10;66.50
51029;DHT22;37054;52.054;8.600;2023-03-13T08:13:32;18.10;66.40
51029;DHT22;37054;52.054;8.600;2023-03-13T08:16:01;18.20;66.40
51029;DHT22;37054;52.054;8.600;2023-03-13T08:18:27;18.30;66.30
51029;DHT22;37054;52.054;8.600;2023-03-13T08:20:53;18.30;66.00
51029;DHT22;37054;52.054;8.600;2023-03-13T08:23:18;18.30;66.20
51029;DHT22;37054;52.054;8.600;2023-03-13T08:25:44;18.20;66.40
51029;DHT22;37054;52.054;8.600;2023-03-13T08:28:10;18.30;66.70
51029;DHT22;37054;52.054;8.600;2023-03-13T08:30:36;18.30;66.50
51029;DHT22;37054;52.054;8.600;2023-03-13T08:33:02;18.40;66.40
51029;DHT22;37054;52.054;8.600;2023-03-13T08:35:28;18.50;66.40
51029;DHT22;37054;52.054;8.600;2023-03-13T08:37:53;18.70;66.40
51029;DHT22;37054;52.054;8.600;2023-03-13T08:40:19;18.80;66.00
51029;DHT22;37054;52.054;8.600;2023-03-13T08:42:44;18.80;66.40
51029;DHT22;37054;52.054;8.600;2023-03-13T08:45:10;19.00;66.10
51029;DHT22;37054;52.054;8.600;2023-03-13T08:47:35;19.00;65.80
51029;DHT22;37054;52.054;8.600;2023-03-13T08:50:01;19.00;65.60
51029;DHT22;37054;52.054;8.600;2023-03-13T08:52:27;19.10;65.60
51029;DHT22;37054;52.054;8.600;2023-03-13T08:54:52;19.10;65.40
51029;DHT22;37054;52.054;8.600;2023-03-13T08:57:18;19.30;65.60
51029;DHT22;37054;52.054;8.600;2023-03-13T08:59:43;19.40;65.70
51029;DHT22;37054;52.054;8.600;2023-03-13T09:02:09;19.30;65.50
51029;DHT22;37054;52.054;8.600;2023-03-13T09:04:35;19.40;65.60
51029;DHT22;37054;52.054;8.600;2023-03-13T09:07:00;19.40;65.20
51029;DHT22;37054;52.054;8.600;2023-03-13T09:09:27;19.30;65.40
51029;DHT22;37054;52.054;8.600;2023-03-13T09:11:52;19.40;65.30
51029;DHT22;37054;52.054;8.600;2023-03-13T09:14:18;19.40;65.00
51029;DHT22;37054;52.054;8.600;2023-03-13T09:16:44;19.50;65.20
51029;DHT22;37054;52.054;8.600;2023-03-13T09:19:11;19.60;65.10
51029;DHT22;37054;52.054;8.600;2023-03-13T09:21:37;19.60;64.40
51029;DHT22;37054;52.054;8.600;2023-03-13T09:24:03;19.60;64.80
51029;DHT22;37054;52.054;8.600;2023-03-13T09:26:29;19.60;65.00
51029;DHT22;37054;52.054;8.600;2023-03-13T09:28:54;19.70;64.90
51029;DHT22;37054;52.054;8.600;2023-03-13T09:31:27;19.70;64.40
51029;DHT22;37054;52.054;8.600;2023-03-13T09:33:54;19.70;64.70
51029;DHT22;37054;52.054;8.600;2023-03-13T09:36:20;19.70;64.60
51029;DHT22;37054;52.054;8.600;2023-03-13T09:38:45;19.70;64.50
51029;DHT22;37054;52.054;8.600;2023-03-13T09:46:08;19.50;64.40
51029;DHT22;37054;52.054;8.600;2023-03-13T09:48:36;19.40;64.10
51029;DHT22;37054;52.054;8.600;2023-03-13T09:51:09;19.30;64.20
51029;DHT22;37054;52.054;8.600;2023-03-13T09:53:38;19.30;64.50
51029;DHT22;37054;52.054;8.600;2023-03-13T09:56:06;19.30;64.60
51029;DHT22;37054;52.054;8.600;2023-03-13T09:58:36;19.30;64.90
51029;DHT22;37054;52.054;8.600;2023-03-13T10:01:03;19.40;65.30
51029;DHT22;37054;52.054;8.600;2023-03-13T10:03:38;19.50;65.40
51029;DHT22;37054;52.054;8.600;2023-03-13T10:06:13;19.50;65.40
51029;DHT22;37054;52.054;8.600;2023-03-13T10:08:41;19.90;66.40
51029;DHT22;37054;52.054;8.600;2023-03-13T10:11:11;20.30;66.50
51029;DHT22;37054;52.054;8.600;2023-03-13T10:13:43;20.70;67.20
51029;DHT22;37054;52.054;8.600;2023-03-13T10:16:13;21.10;67.50
51029;DHT22;37054;52.054;8.600;2023-03-13T10:18:41;21.60;67.50
51029;DHT22;37054;52.054;8.600;2023-03-13T10:21:22;22.00;66.10
51029;DHT22;37054;52.054;8.600;2023-03-13T10:23:49;22.30;66.00
51029;DHT22;37054;52.054;8.600;2023-03-13T10:26:18;22.90;66.40
51029;DHT22;37054;52.054;8.600;2023-03-13T10:28:45;23.40;65.80
51029;DHT22;37054;52.054;8.600;2023-03-13T10:31:13;23.60;64.80
51029;DHT22;37054;52.054;8.600;2023-03-13T10:33:41;24.00;64.30
51029;DHT22;37054;52.054;8.600;2023-03-13T10:36:08;24.40;64.00
51029;DHT22;37054;52.054;8.600;2023-03-13T10:38:44;24.60;63.30
51029;DHT22;37054;52.054;8.600;2023-03-13T10:41:26;24.70;61.50
51029;DHT22;37054;52.054;8.600;2023-03-13T10:43:53;24.50;60.20
51029;DHT22;37054;52.054;8.600;2023-03-13T10:46:26;24.40;61.10
51029;DHT22;37054;52.054;8.600;2023-03-13T10:48:55;24.30;60.10
51029;DHT22;37054;52.054;8.600;2023-03-13T10:51:22;24.10;58.90
51029;DHT22;37054;52.054;8.600;2023-03-13T10:53:47;24.10;59.70
51029;DHT22;37054;52.054;8.600;2023-03-13T10:56:14;24.00;60.00
51029;DHT22;37054;52.054;8.600;2023-03-13T10:58:43;24.10;60.80
51029;DHT22;37054;52.054;8.600;2023-03-13T11:01:26;24.30;60.90
51029;DHT22;37054;52.054;8.600;2023-03-13T11:03:54;24.70;58.50
51029;DHT22;37054;52.054;8.600;2023-03-13T11:06:24;24.70;57.70
51029;DHT22;37054;52.054;8.600;2023-03-13T11:11:44;24.70;57.50
51029;DHT22;37054;52.054;8.600;2023-03-13T11:14:18;24.70;57.60
51029;DHT22;37054;52.054;8.600;2023-03-13T11:16:48;24.70;56.80
51029;DHT22;37054;52.054;8.600;2023-03-13T11:19:18;25.00;58.00
51029;DHT22;37054;52.054;8.600;2023-03-13T11:22:06;25.40;57.50
51029;DHT22;37054;52.054;8.600;2023-03-13T11:27:37;26.10;55.60
51029;DHT22;37054;52.054;8.600;2023-03-13T11:30:23;26.20;53.50
51029;DHT22;37054;52.054;8.600;2023-03-13T11:32:51;26.50;51.80
51029;DHT22;37054;52.054;8.600;2023-03-13T11:35:31;26.60;49.80
51029;DHT22;37054;52.054;8.600;2023-03-13T11:37:57;26.60;49.90
51029;DHT22;37054;52.054;8.600;2023-03-13T11:40:29;26.90;48.80
51029;DHT22;37054;52.054;8.600;2023-03-13T11:43:08;27.00;47.50
51029;DHT22;37054;52.054;8.600;2023-03-13T11:54:02;26.30;49.80
51029;DHT22;37054;52.054;8.600;2023-03-13T12:01:39;26.00;47.60
51029;DHT22;37054;52.054;8.600;2023-03-13T12:04:17;25.70;47.70
51029;DHT22;37054;52.054;8.600;2023-03-13T12:06:49;25.50;48.90
51029;DHT22;37054;52.054;8.600;2023-03-13T12:09:22;25.40;50.10
51029;DHT22;37054;52.054;8.600;2023-03-13T12:11:54;25.40;47.20
51029;DHT22;37054;52.054;8.600;2023-03-13T12:16:53;26.00;49.20
51029;DHT22;37054;52.054;8.600;2023-03-13T12:19:26;26.40;48.60
51029;DHT22;37054;52.054;8.600;2023-03-13T12:21:53;26.50;47.10
51029;DHT22;37054;52.054;8.600;2023-03-13T12:26:59;26.80;45.00
51029;DHT22;37054;52.054;8.600;2023-03-13T12:32:00;26.30;45.30
51029;DHT22;37054;52.054;8.600;2023-03-13T12:34:35;26.10;43.90
51029;DHT22;37054;52.054;8.600;2023-03-13T12:40:30;25.70;45.90
51029;DHT22;37054;52.054;8.600;2023-03-13T12:42:41;25.60;45.50
51029;DHT22;37054;52.054;8.600;2023-03-13T12:45:13;25.60;45.90
51029;DHT22;37054;52.054;8.600;2023-03-13T12:50:35;25.40;43.80
51029;DHT22;37054;52.054;8.600;2023-03-13T13:00:30;25.70;43.80
51029;DHT22;37054;52.054;8.600;2023-03-13T13:05:34;25.60;42.50
51029;DHT22;37054;52.054;8.600;2023-03-13T13:08:00;25.40;41.80
51029;DHT22;37054;52.054;8.600;2023-03-13T13:10:26;25.30;40.90
51029;DHT22;37054;52.054;8.600;2023-03-13T13:15:37;25.30;41.80
51029;DHT22;37054;52.054;8.600;2023-03-13T13:25:53;25.60;39.90
51029;DHT22;37054;52.054;8.600;2023-03-13T13:28:24;25.50;39.80
51029;DHT22;37054;52.054;8.600;2023-03-13T13:30:52;25.50;40.70
51029;DHT22;37054;52.054;8.600;2023-03-13T13:38:40;25.20;39.50
51029;DHT22;37054;52.054;8.600;2023-03-13T13:43:38;25.00;39.20
51029;DHT22;37054;52.054;8.600;2023-03-13T13:48:38;25.10;41.00
51029;DHT22;37054;52.054;8.600;2023-03-13T13:53:43;25.10;39.00
51029;DHT22;37054;52.054;8.600;2023-03-13T14:01:37;25.10;38.90
51029;DHT22;37054;52.054;8.600;2023-03-13T14:04:10;25.10;39.50
51029;DHT22;37054;52.054;8.600;2023-03-13T14:06:37;25.20;39.60
51029;DHT22;37054;52.054;8.600;2023-03-13T14:09:12;25.10;38.10
51029;DHT22;37054;52.054;8.600;2023-03-13T14:11:39;25.10;38.40
51029;DHT22;37054;52.054;8.600;2023-03-13T14:14:10;25.20;38.40
51029;DHT22;37054;52.054;8.600;2023-03-13T14:16:36;25.10;38.00
51029;DHT22;37054;52.054;8.600;2023-03-13T14:19:02;25.10;38.00
51029;DHT22;37054;52.054;8.600;2023-03-13T14:21:28;25.00;38.10
51029;DHT22;37054;52.054;8.600;2023-03-13T14:23:54;25.00;38.20
51029;DHT22;37054;52.054;8.600;2023-03-13T14:26:21;25.00;38.90
51029;DHT22;37054;52.054;8.600;2023-03-13T14:28:54;25.00;38.50
51029;DHT22;37054;52.054;8.600;2023-03-13T14:31:48;24.90;38.10
51029;DHT22;37054;52.054;8.600;2023-03-13T14:34:07;24.80;38.40
51029;DHT22;37054;52.054;8.600;2023-03-13T14:36:46;24.70;38.20
51029;DHT22;37054;52.054;8.600;2023-03-13T14:39:45;24.60;37.20
51029;DHT22;37054;52.054;8.600;2023-03-13T14:42:25;24.40;37.70
51029;DHT22;37054;52.054;8.600;2023-03-13T14:44:50;24.30;38.50
51029;DHT22;37054;52.054;8.600;2023-03-13T14:47:21;24.30;38.40
51029;DHT22;37054;52.054;8.600;2023-03-13T14:49:47;24.30;38.60
51029;DHT22;37054;52.054;8.600;2023-03-13T14:52:21;24.30;38.50
51029;DHT22;37054;52.054;8.600;2023-03-13T14:57:20;24.20;38.30
51029;DHT22;37054;52.054;8.600;2023-03-13T14:59:47;24.30;38.30
51029;DHT22;37054;52.054;8.600;2023-03-13T15:02:20;24.20;38.60
51029;DHT22;37054;52.054;8.600;2023-03-13T15:04:59;24.20;38.60
51029;DHT22;37054;52.054;8.600;2023-03-13T15:07:39;24.00;38.30
51029;DHT22;37054;52.054;8.600;2023-03-13T15:10:18;24.00;38.80
51029;DHT22;37054;52.054;8.600;2023-03-13T15:12:44;23.90;38.60
51029;DHT22;37054;52.054;8.600;2023-03-13T15:15:10;24.00;38.70
51029;DHT22;37054;52.054;8.600;2023-03-13T15:17:35;24.00;38.50
51029;DHT22;37054;52.054;8.600;2023-03-13T15:20:02;24.10;39.10
51029;DHT22;37054;52.054;8.600;2023-03-13T15:22:32;24.00;38.80
51029;DHT22;37054;52.054;8.600;2023-03-13T15:24:59;24.00;38.90
51029;DHT22;37054;52.054;8.600;2023-03-13T15:27:25;23.90;38.90
51029;DHT22;37054;52.054;8.600;2023-03-13T15:29:51;23.80;39.00
51029;DHT22;37054;52.054;8.600;2023-03-13T15:32:27;23.80;39.00
51029;DHT22;37054;52.054;8.600;2023-03-13T15:34:56;23.70;39.30
51029;DHT22;37054;52.054;8.600;2023-03-13T15:37:29;23.60;39.20
51029;DHT22;37054;52.054;8.600;2023-03-13T15:39:55;23.60;39.60
51029;DHT22;37054;52.054;8.600;2023-03-13T15:42:21;23.50;39.60
51029;DHT22;37054;52.054;8.600;2023-03-13T15:44:47;23.50;39.60
51029;DHT22;37054;52.054;8.600;2023-03-13T15:47:19;23.50;39.80
51029;DHT22;37054;52.054;8.600;2023-03-13T15:49:45;23.50;39.80
51029;DHT22;37054;52.054;8.600;2023-03-13T15:52:15;23.40;39.90
51029;DHT22;37054;52.054;8.600;2023-03-13T15:54:46;23.40;39.90
51029;DHT22;37054;52.054;8.600;2023-03-13T15:57:16;23.30;40.00
51029;DHT22;37054;52.054;8.600;2023-03-13T15:59:42;23.20;40.10
51029;DHT22;37054;52.054;8.600;2023-03-13T16:02:16;23.20;40.20
51029;DHT22;37054;52.054;8.600;2023-03-13T16:04:42;23.10;40.20
51029;DHT22;37054;52.054;8.600;2023-03-13T16:07:08;23.10;40.20
51029;DHT22;37054;52.054;8.600;2023-03-13T16:09:36;23.10;40.40
51029;DHT22;37054;52.054;8.600;2023-03-13T16:12:01;23.00;40.60
51029;DHT22;37054;52.054;8.600;2023-03-13T16:14:27;22.90;40.60
51029;DHT22;37054;52.054;8.600;2023-03-13T16:16:54;22.90;40.90
51029;DHT22;37054;52.054;8.600;2023-03-13T16:19:20;22.90;41.10
51029;DHT22;37054;52.054;8.600;2023-03-13T16:21:45;22.80;41.10
51029;DHT22;37054;52.054;8.600;2023-03-13T16:24:13;22.80;41.20
51029;DHT22;37054;52.054;8.600;2023-03-13T16:26:38;22.80;41.20
51029;DHT22;37054;52.054;8.600;2023-03-13T16:29:04;22.80;41.30
51029;DHT22;37054;52.054;8.600;2023-03-13T16:31:30;22.70;41.40
51029;DHT22;37054;52.054;8.600;2023-03-13T16:33:57;22.70;41.20
51029;DHT22;37054;52.054;8.600;2023-03-13T16:36:24;22.70;41.40
51029;DHT22;37054;52.054;8.600;2023-03-13T16:38:51;22.80;41.70
51029;DHT22;37054;52.054;8.600;2023-03-13T16:41:18;22.80;41.50
51029;DHT22;37054;52.054;8.600;2023-03-13T16:43:47;22.70;41.60
51029;DHT22;37054;52.054;8.600;2023-03-13T16:46:14;22.70;41.90
51029;DHT22;37054;52.054;8.600;2023-03-13T16:48:39;22.60;41.80
51029;DHT22;37054;52.054;8.600;2023-03-13T16:51:10;22.50;41.50
51029;DHT22;37054;52.054;8.600;2023-03-13T16:53:40;22.40;41.70
51029;DHT22;37054;52.054;8.600;2023-03-13T16:56:08;22.30;41.70
51029;DHT22;37054;52.054;8.600;2023-03-13T16:58:38;22.30;42.00